createdAt,value
2023-04-11T00:01:02.824Z,77.50
2023-04-11T00:03:30.173Z,77.40
2023-04-11T00:05:57.602Z,77.30
2023-04-11T00:08:25.115Z,77.00
2023-04-11T00:10:52.353Z,76.70
2023-04-11T00:13:19.933Z,76.60
2023-04-11T00:15:48.001Z,76.40
2023-04-11T00:18:15.535Z,76.20
2023-04-11T00:20:42.788Z,75.90
2023-04-11T00:23:10.100Z,75.50
2023-04-11T00:25:37.575Z,74.80
2023-04-11T00:28:04.983Z,74.50
2023-04-11T00:30:32.282Z,74.30
2023-04-11T00:32:59.671Z,74.40
2023-04-11T00:35:26.957Z,74.40
2023-04-11T00:37:56.417Z,74.30
2023-04-11T00:40:23.803Z,74.40
2023-04-11T00:42:51.104Z,74.30
2023-04-11T00:45:18.432Z,74.30
2023-04-11T00:47:45.906Z,74.90
2023-04-11T00:50:14.313Z,74.40
2023-04-11T00:52:42.926Z,74.40
2023-04-11T00:55:10.938Z,74.50
2023-04-11T00:57:38.821Z,74.50
2023-04-11T01:00:09.963Z,74.60
2023-04-11T01:02:38.953Z,74.70
2023-04-11T01:05:08.146Z,74.80
2023-04-11T01:07:37.044Z,74.90
2023-04-11T01:10:06.006Z,74.90
2023-04-11T01:12:34.279Z,75.00
2023-04-11T01:15:01.844Z,75.00
2023-04-11T01:17:29.447Z,75.00
2023-04-11T01:19:56.749Z,75.20
2023-04-11T01:22:25.941Z,75.10
2023-04-11T01:24:53.390Z,75.20
2023-04-11T01:27:20.900Z,75.20
2023-04-11T01:29:48.181Z,75.30
2023-04-11T01:32:15.697Z,75.30
2023-04-11T01:34:44.763Z,75.20
2023-04-11T01:37:12.080Z,75.00
2023-04-11T01:39:39.573Z,75.00
2023-04-11T01:42:07.096Z,75.10
2023-04-11T01:44:35.393Z,75.20
2023-04-11T01:47:04.249Z,75.20
2023-04-11T01:49:31.588Z,75.30
2023-04-11T01:51:58.833Z,75.30
2023-04-11T01:54:26.382Z,75.20
2023-04-11T01:56:55.094Z,75.10
2023-04-11T01:59:22.363Z,75.10
2023-04-11T02:01:49.631Z,75.10
2023-04-11T02:04:17.056Z,75.10
2023-04-11T02:06:44.625Z,75.10
2023-04-11T02:09:12.293Z,75.20
2023-04-11T02:11:39.606Z,75.20
2023-04-11T02:14:06.927Z,75.10
2023-04-11T02:16:34.177Z,75.20
2023-04-11T02:19:03.725Z,75.20
2023-04-11T02:21:30.976Z,75.40
2023-04-11T02:23:59.707Z,75.40
2023-04-11T02:26:27.997Z,75.40
2023-04-11T02:28:56.666Z,75.50
2023-04-11T02:31:24.210Z,75.40
2023-04-11T02:33:51.576Z,75.30
2023-04-11T02:36:19.740Z,75.40
2023-04-11T02:38:47.116Z,75.40
2023-04-11T02:41:14.370Z,75.40
2023-04-11T02:43:41.615Z,75.20
2023-04-11T02:46:12.503Z,75.10
2023-04-11T02:48:42.916Z,75.10
2023-04-11T02:51:11.786Z,75.20
2023-04-11T02:53:39.258Z,75.20
2023-04-11T02:56:07.944Z,75.30
2023-04-11T02:58:39.075Z,75.50
2023-04-11T03:01:08.232Z,75.70
2023-04-11T03:03:35.663Z,75.80
2023-04-11T03:06:02.990Z,75.80
2023-04-11T03:08:30.931Z,75.90
2023-04-11T03:10:59.243Z,76.40
2023-04-11T03:13:26.853Z,76.60
2023-04-11T03:15:54.255Z,76.80
2023-04-11T03:18:24.954Z,76.90
2023-04-11T03:20:53.135Z,77.10
2023-04-11T03:23:20.395Z,77.40
2023-04-11T03:25:48.788Z,77.20
2023-04-11T03:28:18.310Z,77.20
2023-04-11T03:30:46.530Z,77.30
2023-04-11T03:33:19.437Z,77.30
2023-04-11T03:35:46.683Z,77.10
2023-04-11T03:38:14.200Z,77.20
2023-04-11T03:40:41.666Z,77.40
2023-04-11T03:43:13.567Z,77.80
2023-04-11T03:45:41.245Z,77.70
2023-04-11T03:48:18.155Z,77.50
2023-04-11T03:50:54.237Z,77.70
2023-04-11T03:53:27.372Z,77.60
2023-04-11T03:55:59.129Z,77.90
2023-04-11T03:58:34.825Z,77.90
2023-04-11T04:01:02.889Z,78.00
2023-04-11T04:03:31.387Z,78.00
2023-04-11T04:06:00.544Z,78.00
2023-04-11T04:08:28.368Z,78.20
2023-04-11T04:10:56.602Z,78.00
2023-04-11T04:13:23.831Z,78.10
2023-04-11T04:16:01.867Z,78.00
2023-04-11T04:18:30.811Z,78.20
2023-04-11T04:20:58.085Z,78.10
2023-04-11T04:23:27.036Z,78.10
2023-04-11T04:26:25.236Z,77.90
2023-04-11T04:29:06.646Z,77.90
2023-04-11T04:31:50.748Z,77.90
2023-04-11T04:34:22.028Z,77.80
2023-04-11T04:36:50.983Z,77.70
2023-04-11T04:39:25.563Z,77.70
2023-04-11T04:42:01.575Z,77.60
2023-04-11T04:44:36.232Z,77.60
2023-04-11T04:47:10.485Z,77.60
2023-04-11T04:49:37.778Z,77.70
2023-04-11T04:52:05.344Z,77.90
2023-04-11T04:54:33.134Z,77.90
2023-04-11T04:57:01.551Z,77.80
2023-04-11T04:59:28.967Z,77.90
2023-04-11T05:02:03.491Z,77.70
2023-04-11T05:04:32.076Z,77.80
2023-04-11T05:07:00.614Z,77.90
2023-04-11T05:09:29.661Z,77.80
2023-04-11T05:12:08.863Z,77.80
2023-04-11T05:14:38.616Z,77.80
2023-04-11T05:17:06.190Z,77.80
2023-04-11T05:19:33.457Z,77.90
2023-04-11T05:22:01.061Z,77.80
2023-04-11T05:24:28.229Z,77.80
2023-04-11T05:26:57.324Z,77.80
2023-04-11T05:29:24.631Z,77.90
2023-04-11T05:31:52.144Z,78.00
2023-04-11T05:34:20.043Z,78.00
2023-04-11T05:36:49.672Z,78.00
2023-04-11T05:39:16.985Z,78.00
2023-04-11T05:41:44.225Z,78.20
2023-04-11T05:44:11.531Z,78.10
2023-04-11T05:46:38.925Z,77.90
2023-04-11T05:49:06.367Z,77.90
2023-04-11T05:51:33.550Z,77.80
2023-04-11T05:54:00.847Z,78.10
2023-04-11T05:56:28.051Z,78.10
2023-04-11T05:58:55.903Z,78.40
2023-04-11T06:01:24.063Z,78.30
2023-04-11T06:03:51.429Z,78.20
2023-04-11T06:06:18.861Z,78.00
2023-04-11T06:08:46.287Z,77.80
2023-04-11T06:11:13.579Z,77.80
2023-04-11T06:13:41.014Z,77.80
2023-04-11T06:16:08.551Z,78.40
2023-04-11T06:18:35.968Z,77.90
2023-04-11T06:21:03.215Z,77.90
2023-04-11T06:23:30.522Z,77.90
2023-04-11T06:25:57.780Z,78.10
2023-04-11T06:28:25.000Z,78.20
2023-04-11T06:30:52.582Z,78.30
2023-04-11T06:33:20.253Z,78.20
2023-04-11T06:35:47.613Z,78.20
2023-04-11T06:38:15.056Z,78.20
2023-04-11T06:40:42.406Z,78.20
2023-04-11T06:43:09.686Z,78.20
2023-04-11T06:45:36.885Z,78.20
2023-04-11T06:48:04.437Z,78.80
2023-04-11T06:50:31.791Z,78.30
2023-04-11T06:52:59.372Z,78.40
2023-04-11T06:55:27.211Z,78.30
2023-04-11T06:57:54.853Z,78.40
2023-04-11T07:00:22.229Z,78.40
2023-04-11T07:02:50.011Z,78.40
2023-04-11T07:05:17.520Z,79.10
2023-04-11T07:07:44.834Z,78.60
2023-04-11T07:10:12.053Z,78.70
2023-04-11T07:12:39.354Z,78.60
2023-04-11T07:15:07.238Z,78.70
2023-04-11T07:17:34.534Z,78.90
2023-04-11T07:20:02.126Z,79.00
2023-04-11T07:22:29.455Z,79.10
2023-04-11T07:24:57.677Z,79.00
2023-04-11T07:27:25.051Z,79.20
2023-04-11T07:29:52.323Z,79.20
2023-04-11T07:32:19.686Z,79.30
2023-04-11T07:34:46.952Z,79.50
2023-04-11T07:37:14.308Z,79.60
2023-04-11T07:39:41.787Z,79.80
2023-04-11T07:42:09.148Z,79.90
2023-04-11T07:44:36.462Z,80.00
2023-04-11T07:47:03.887Z,79.90
2023-04-11T07:49:31.445Z,79.90
2023-04-11T07:51:58.719Z,79.80
2023-04-11T07:54:25.965Z,79.80
2023-04-11T07:56:53.270Z,79.40
2023-04-11T07:59:20.552Z,79.00
2023-04-11T08:01:47.928Z,78.80
2023-04-11T08:04:15.432Z,78.60
2023-04-11T08:06:43.703Z,78.30
2023-04-11T08:09:11.167Z,77.90
2023-04-11T08:11:39.547Z,77.80
2023-04-11T08:14:06.808Z,77.30
2023-04-11T08:16:35.771Z,77.20
2023-04-11T08:19:03.300Z,77.30
2023-04-11T08:21:31.401Z,77.20
2023-04-11T08:23:58.937Z,76.70
2023-04-11T08:26:26.266Z,75.40
2023-04-11T08:28:53.636Z,74.20
2023-04-11T08:31:21.039Z,74.40
2023-04-11T08:33:48.443Z,74.20
2023-04-11T08:36:15.884Z,73.80
2023-04-11T08:38:43.305Z,72.90
2023-04-11T08:41:11.068Z,73.40
2023-04-11T08:43:44.344Z,73.40
2023-04-11T08:46:12.946Z,73.70
2023-04-11T08:48:41.389Z,73.60
2023-04-11T08:51:08.798Z,73.30
2023-04-11T08:53:40.109Z,73.00
2023-04-11T08:56:14.135Z,73.30
2023-04-11T08:58:43.515Z,73.20
2023-04-11T09:01:33.253Z,73.40
2023-04-11T09:04:02.209Z,73.70
2023-04-11T09:06:32.762Z,73.60
2023-04-11T09:09:01.431Z,73.50
2023-04-11T09:11:28.707Z,73.20
2023-04-11T09:14:11.637Z,73.20
2023-04-11T09:16:58.372Z,72.90
2023-04-11T09:19:30.250Z,73.00
2023-04-11T09:22:06.211Z,72.80
2023-04-11T09:24:35.541Z,72.90
2023-04-11T09:27:17.237Z,73.20
2023-04-11T09:29:46.339Z,73.30
2023-04-11T09:32:31.197Z,73.80
2023-04-11T09:35:19.877Z,73.80
2023-04-11T09:37:53.366Z,73.20
2023-04-11T09:40:23.770Z,72.50
2023-04-11T09:43:00.786Z,71.40
2023-04-11T09:45:30.829Z,71.00
2023-04-11T09:48:00.199Z,71.50
2023-04-11T09:50:28.615Z,71.90
2023-04-11T09:52:58.910Z,72.20
2023-04-11T09:55:26.548Z,72.30
2023-04-11T09:57:54.822Z,72.50
2023-04-11T10:00:30.333Z,72.60
2023-04-11T10:02:57.836Z,72.40
2023-04-11T10:05:27.789Z,72.30
2023-04-11T10:08:04.278Z,72.30
2023-04-11T10:10:31.823Z,72.90
2023-04-11T10:12:59.056Z,73.20
2023-04-11T10:15:26.587Z,73.00
2023-04-11T10:18:11.094Z,71.80
2023-04-11T10:20:50.582Z,71.80
2023-04-11T10:23:17.942Z,72.30
2023-04-11T10:25:53.791Z,71.80
2023-04-11T10:28:38.639Z,71.10
2023-04-11T10:31:13.453Z,71.00
2023-04-11T10:34:01.414Z,70.80
2023-04-11T10:36:48.852Z,71.70
2023-04-11T10:39:16.214Z,72.10
2023-04-11T10:41:43.509Z,72.50
2023-04-11T10:44:16.174Z,72.20
2023-04-11T10:46:54.284Z,72.30
2023-04-11T10:49:39.729Z,72.40
2023-04-11T10:52:23.760Z,71.30
2023-04-11T10:54:52.790Z,70.80
2023-04-11T10:57:21.278Z,70.40
2023-04-11T10:59:51.422Z,70.70
2023-04-11T11:02:20.163Z,70.50
2023-04-11T11:04:48.951Z,69.80
2023-04-11T11:07:17.614Z,69.50
2023-04-11T11:09:51.495Z,69.90
2023-04-11T11:12:18.776Z,70.00
2023-04-11T11:14:47.146Z,69.50
2023-04-11T11:17:16.401Z,69.80
2023-04-11T11:19:45.235Z,69.40
2023-04-11T11:22:17.121Z,69.70
2023-04-11T11:24:44.424Z,70.10
2023-04-11T11:27:22.948Z,70.50
2023-04-11T11:29:51.105Z,70.50
2023-04-11T11:32:29.719Z,70.70
2023-04-11T11:34:57.938Z,70.90
2023-04-11T11:37:25.476Z,71.20
2023-04-11T11:39:53.335Z,71.30
2023-04-11T11:42:21.145Z,71.50
2023-04-11T11:44:48.367Z,71.70
2023-04-11T11:47:16.281Z,71.10
2023-04-11T11:50:02.213Z,71.00
2023-04-11T11:52:41.145Z,71.60
2023-04-11T11:55:29.899Z,71.10
2023-04-11T11:58:02.216Z,71.20
2023-04-11T12:00:32.545Z,71.50
2023-04-11T12:03:00.849Z,71.10
2023-04-11T12:05:31.341Z,70.60
2023-04-11T12:08:00.724Z,69.70
2023-04-11T12:10:40.742Z,69.90
2023-04-11T12:13:25.659Z,70.00
2023-04-11T12:15:54.313Z,70.50
2023-04-11T12:18:26.147Z,70.70
2023-04-11T12:20:54.166Z,70.20
2023-04-11T12:23:21.881Z,69.50
2023-04-11T12:25:49.086Z,69.60
2023-04-11T12:28:16.677Z,69.30
2023-04-11T12:30:44.617Z,69.50
2023-04-11T12:33:11.905Z,69.30
2023-04-11T12:35:39.223Z,69.60
2023-04-11T12:38:07.890Z,69.30
2023-04-11T12:40:35.129Z,68.20
2023-04-11T12:43:02.425Z,68.60
2023-04-11T12:45:29.741Z,68.70
2023-04-11T12:47:57.069Z,68.70
2023-04-11T12:50:24.594Z,68.40
2023-04-11T12:52:52.897Z,68.40
2023-04-11T12:55:20.361Z,68.70
2023-04-11T12:57:47.667Z,69.40
2023-04-11T13:00:15.630Z,69.10
2023-04-11T13:02:45.338Z,69.70
2023-04-11T13:05:15.662Z,69.30
2023-04-11T13:07:47.082Z,68.60
2023-04-11T13:10:18.818Z,69.00
2023-04-11T13:12:48.133Z,68.50
2023-04-11T13:15:17.146Z,67.90
2023-04-11T13:17:44.842Z,68.20
2023-04-11T13:20:13.645Z,68.30
2023-04-11T13:22:42.053Z,68.30
2023-04-11T13:25:10.637Z,68.10
2023-04-11T13:27:39.783Z,68.40
2023-04-11T13:30:08.417Z,68.00
2023-04-11T13:32:35.769Z,67.40
2023-04-11T13:35:04.139Z,67.70
2023-04-11T13:37:31.583Z,67.10
2023-04-11T13:39:58.863Z,68.10
2023-04-11T13:42:26.196Z,68.30
2023-04-11T13:44:53.924Z,67.70
2023-04-11T13:47:21.646Z,67.30
2023-04-11T13:49:49.039Z,66.90
2023-04-11T13:52:16.316Z,66.90
2023-04-11T13:54:43.533Z,65.30
2023-04-11T13:57:10.806Z,66.10
2023-04-11T13:59:38.005Z,65.90
2023-04-11T14:02:05.350Z,66.90
2023-04-11T14:04:32.724Z,66.40
2023-04-11T14:07:00.292Z,65.20
2023-04-11T14:09:27.492Z,64.70
2023-04-11T14:11:54.703Z,65.20
2023-04-11T14:14:22.031Z,64.20
2023-04-11T14:16:50.523Z,62.50
2023-04-11T14:19:22.812Z,62.70
2023-04-11T14:21:51.664Z,62.70
2023-04-11T14:24:22.523Z,62.30
2023-04-11T14:26:50.505Z,63.40
2023-04-11T14:29:19.129Z,62.90
2023-04-11T14:31:47.733Z,62.00
2023-04-11T14:34:15.123Z,62.00
2023-04-11T14:36:42.286Z,61.80
2023-04-11T14:39:09.566Z,61.70
2023-04-11T14:41:36.832Z,61.20
2023-04-11T14:44:04.116Z,60.80
2023-04-11T14:46:31.467Z,59.40
2023-04-11T14:49:00.610Z,58.30
2023-04-11T14:51:29.740Z,58.10
2023-04-11T14:53:57.438Z,58.10
2023-04-11T14:56:25.710Z,57.50
2023-04-11T14:58:53.382Z,57.10
2023-04-11T15:01:20.955Z,58.00
2023-04-11T15:03:48.991Z,58.70
2023-04-11T15:06:16.400Z,57.90
2023-04-11T15:08:43.656Z,57.80
2023-04-11T15:11:11.008Z,58.00
2023-04-11T15:13:38.178Z,58.20
2023-04-11T15:16:06.671Z,58.90
2023-04-11T15:18:35.068Z,59.30
2023-04-11T15:21:03.578Z,59.40
2023-04-11T15:23:31.213Z,59.30
2023-04-11T15:26:03.348Z,59.20
2023-04-11T15:28:36.091Z,58.10
2023-04-11T15:31:05.637Z,58.40
2023-04-11T15:33:33.135Z,56.80
2023-04-11T15:36:01.168Z,57.50
2023-04-11T15:38:29.275Z,58.00
2023-04-11T15:40:58.758Z,57.30
2023-04-11T15:43:26.420Z,58.10
2023-04-11T15:45:54.657Z,57.10
2023-04-11T15:48:22.077Z,56.50
2023-04-11T15:50:51.663Z,55.70
2023-04-11T15:53:19.090Z,57.00
2023-04-11T15:55:47.775Z,55.60
2023-04-11T15:58:15.650Z,55.80
2023-04-11T16:00:44.147Z,55.90
2023-04-11T16:03:11.719Z,56.60
2023-04-11T16:05:43.206Z,56.20
2023-04-11T16:08:10.737Z,54.70
2023-04-11T16:10:37.928Z,54.20
2023-04-11T16:13:05.162Z,53.50
2023-04-11T16:15:32.855Z,53.20
2023-04-11T16:18:00.643Z,54.10
2023-04-11T16:20:28.083Z,53.40
2023-04-11T16:22:55.279Z,52.70
2023-04-11T16:25:22.578Z,53.20
2023-04-11T16:27:51.659Z,54.10
2023-04-11T16:30:19.115Z,54.70
2023-04-11T16:32:46.562Z,54.70
2023-04-11T16:35:14.065Z,54.40
2023-04-11T16:37:41.437Z,55.20
2023-04-11T16:40:12.039Z,55.50
2023-04-11T16:42:40.434Z,55.20
2023-04-11T16:45:13.743Z,55.60
2023-04-11T16:47:41.120Z,54.80
2023-04-11T16:50:09.007Z,54.60
2023-04-11T16:52:36.416Z,53.70
2023-04-11T16:55:03.938Z,53.50
2023-04-11T16:57:33.414Z,54.30
2023-04-11T17:00:01.222Z,55.00
2023-04-11T17:02:29.617Z,54.90
2023-04-11T17:04:57.176Z,55.30
2023-04-11T17:07:25.110Z,55.40
2023-04-11T17:09:52.374Z,55.90
2023-04-11T17:12:19.692Z,56.10
2023-04-11T17:14:50.021Z,56.20
2023-04-11T17:17:17.410Z,56.10
2023-04-11T17:19:44.622Z,56.10
2023-04-11T17:22:12.000Z,56.30
2023-04-11T17:24:40.275Z,56.50
2023-04-11T17:27:07.704Z,56.60
2023-04-11T17:29:35.007Z,56.70
2023-04-11T17:32:02.783Z,57.40
2023-04-11T17:34:30.045Z,56.80
2023-04-11T17:36:57.550Z,56.80
2023-04-11T17:39:24.946Z,57.20
2023-04-11T17:41:52.195Z,57.10
2023-04-11T17:44:20.724Z,57.70
2023-04-11T17:46:48.774Z,56.90
2023-04-11T17:49:16.398Z,56.70
2023-04-11T17:51:52.379Z,56.70
2023-04-11T17:54:25.826Z,56.80
2023-04-11T17:56:53.373Z,56.90
2023-04-11T17:59:21.322Z,56.70
2023-04-11T18:01:48.668Z,56.90
2023-04-11T18:04:16.158Z,57.00
2023-04-11T18:06:46.295Z,56.80
2023-04-11T18:09:14.201Z,56.80
2023-04-11T18:11:42.182Z,56.80
2023-04-11T18:14:09.675Z,57.00
2023-04-11T18:16:38.912Z,57.00
2023-04-11T18:19:06.441Z,57.20
2023-04-11T18:21:33.749Z,57.30
2023-04-11T18:24:01.035Z,57.30
2023-04-11T18:26:28.773Z,57.50
2023-04-11T18:28:56.161Z,57.60
2023-04-11T18:31:23.545Z,57.80
2023-04-11T18:33:50.836Z,57.90
2023-04-11T18:36:18.291Z,57.90
2023-04-11T18:38:46.080Z,58.00
2023-04-11T18:41:13.860Z,58.10
2023-04-11T18:43:41.523Z,58.20
2023-04-11T18:46:09.792Z,58.30
2023-04-11T18:48:37.807Z,58.40
2023-04-11T18:51:06.140Z,58.40
2023-04-11T18:53:35.007Z,58.50
2023-04-11T18:56:03.679Z,58.60
2023-04-11T18:58:33.588Z,58.70
2023-04-11T19:01:13.902Z,58.90
2023-04-11T19:03:43.548Z,59.10
2023-04-11T19:06:13.125Z,59.30
2023-04-11T19:08:40.982Z,59.40
2023-04-11T19:11:09.108Z,59.60
2023-04-11T19:13:36.539Z,59.70
2023-04-11T19:16:03.941Z,59.80
2023-04-11T19:18:31.523Z,59.90
2023-04-11T19:20:58.853Z,60.00
2023-04-11T19:23:26.464Z,60.10
2023-04-11T19:25:55.609Z,60.20
2023-04-11T19:28:26.789Z,60.30
2023-04-11T19:30:55.598Z,60.50
2023-04-11T19:33:24.266Z,60.60
2023-04-11T19:35:53.164Z,60.80
2023-04-11T19:38:21.982Z,61.10
2023-04-11T19:40:49.589Z,61.30
2023-04-11T19:43:16.953Z,61.30
2023-04-11T19:45:44.537Z,61.50
2023-04-11T19:48:12.500Z,61.70
2023-04-11T19:50:39.872Z,61.90
2023-04-11T19:53:07.211Z,62.10
2023-04-11T19:55:34.573Z,62.30
2023-04-11T19:58:02.151Z,62.40
2023-04-11T20:00:32.716Z,62.60
2023-04-11T20:03:00.188Z,62.80
2023-04-11T20:05:31.494Z,62.90
2023-04-11T20:08:00.368Z,63.00
2023-04-11T20:10:28.557Z,63.00
2023-04-11T20:12:55.801Z,63.10
2023-04-11T20:15:23.271Z,63.20
2023-04-11T20:17:50.640Z,63.30
2023-04-11T20:20:19.715Z,63.40
2023-04-11T20:22:48.209Z,63.60
2023-04-11T20:25:15.567Z,63.50
2023-04-11T20:27:44.028Z,63.60
2023-04-11T20:30:12.394Z,63.60
2023-04-11T20:32:41.366Z,63.60
2023-04-11T20:35:10.210Z,63.70
2023-04-11T20:37:38.216Z,63.70
2023-04-11T20:40:14.267Z,63.70
2023-04-11T20:42:42.818Z,63.70
2023-04-11T20:45:20.664Z,63.80
2023-04-11T20:47:50.387Z,64.00
2023-04-11T20:50:19.431Z,64.00
2023-04-11T20:52:50.626Z,64.00
2023-04-11T20:55:18.396Z,64.00
2023-04-11T20:57:45.676Z,64.00
2023-04-11T21:00:16.679Z,64.20
2023-04-11T21:02:46.148Z,64.20
2023-04-11T21:05:14.345Z,64.30
2023-04-11T21:07:42.311Z,64.50
2023-04-11T21:10:10.918Z,64.60
2023-04-11T21:12:38.670Z,64.60
2023-04-11T21:15:06.908Z,64.70
2023-04-11T21:17:35.726Z,64.80
2023-04-11T21:20:12.258Z,65.00
2023-04-11T21:22:40.410Z,65.00
2023-04-11T21:25:08.146Z,65.00
2023-04-11T21:27:35.386Z,65.10
2023-04-11T21:30:02.809Z,65.10
2023-04-11T21:32:30.048Z,65.10
2023-04-11T21:34:57.335Z,65.20
2023-04-11T21:37:24.634Z,65.30
2023-04-11T21:39:54.722Z,65.30
2023-04-11T21:42:21.938Z,65.30
2023-04-11T21:44:49.214Z,65.30
2023-04-11T21:47:17.876Z,65.30
2023-04-11T21:49:47.256Z,65.50
2023-04-11T21:52:14.716Z,65.70
2023-04-11T21:54:44.951Z,65.60
2023-04-11T21:57:12.312Z,65.70
2023-04-11T21:59:39.808Z,65.70
2023-04-11T22:02:07.287Z,65.90
2023-04-11T22:04:41.293Z,66.10
2023-04-11T22:07:15.773Z,66.10
2023-04-11T22:09:46.996Z,66.10
2023-04-11T22:12:18.042Z,66.20
2023-04-11T22:14:45.429Z,66.40
2023-04-11T22:17:12.714Z,66.50
2023-04-11T22:19:42.380Z,66.60
2023-04-11T22:22:10.303Z,66.80
2023-04-11T22:24:38.483Z,66.90
2023-04-11T22:27:10.366Z,67.10
2023-04-11T22:29:37.616Z,67.20
2023-04-11T22:32:05.005Z,67.10
2023-04-11T22:34:32.297Z,67.10
2023-04-11T22:37:00.107Z,67.10
2023-04-11T22:39:27.419Z,67.20
2023-04-11T22:41:54.802Z,67.10
2023-04-11T22:44:22.150Z,67.20
2023-04-11T22:47:11.200Z,67.20
2023-04-11T22:49:41.188Z,67.30
2023-04-11T22:52:10.789Z,67.30
2023-04-11T22:54:38.673Z,67.30
2023-04-11T22:57:06.487Z,67.30
2023-04-11T22:59:33.787Z,67.40
2023-04-11T23:02:01.179Z,67.40
2023-04-11T23:04:28.523Z,67.50
2023-04-11T23:06:55.803Z,67.60
2023-04-11T23:09:23.131Z,67.60
2023-04-11T23:11:50.378Z,67.50
2023-04-11T23:14:18.300Z,67.50
2023-04-11T23:16:45.671Z,67.50
2023-04-11T23:19:13.644Z,67.50
2023-04-11T23:21:41.226Z,68.00
2023-04-11T23:24:09.258Z,67.40
2023-04-11T23:26:37.251Z,67.40
2023-04-11T23:29:04.807Z,67.60
2023-04-11T23:31:32.716Z,67.50
2023-04-11T23:34:00.762Z,67.90
2023-04-11T23:36:29.337Z,67.70
2023-04-11T23:38:56.911Z,67.90
2023-04-11T23:41:24.219Z,67.90
2023-04-11T23:43:51.539Z,67.90
2023-04-11T23:46:18.918Z,67.80
2023-04-11T23:48:49.096Z,67.80
2023-04-11T23:51:16.792Z,67.70
2023-04-11T23:53:45.740Z,67.70
2023-04-11T23:56:13.029Z,67.60
2023-04-11T23:58:40.902Z,67.50
